Informes METAR cercanos

 

LEBZ - Talavera Ab/Bada, Spain
Distancia desde la estación: ONO 43km
Actualización: 09/05/2021 11:30
Lluvia débil, Drizzle, Intervalos nubosos(4/8)
Lluvia débil, Drizzle, Intervalos nubosos(4/8)
 Viento del S
Viento: S 19 km/h
Temperatura: 15°C
Rocío: 13°C
Humedad: 88%
Barómetro: 1006 hPa
Resumen: Lluvia débil, Drizzle
Nubes: Intervalos nubosos , 4/8
Visibilidad: 8 km
Detalle nubosidad: Poco nuboso , 1/8 914 m
Intervalos nubosos , 4/8 1372 m
2021/05/09 09:30 LEBZ 090930Z 18010KT 8000 -RADZ FEW030 SCT045 15/13 Q1006